sensor_id;sensor_type;location;lat;lon;timestamp;temperature;humidity
47773;DHT22;33534;51.028;13.716;2023-06-22T04:38:53;28.70;52.90
47773;DHT22;33534;51.028;13.716;2023-06-22T04:48:21;29.80;48.90
47773;DHT22;33534;51.028;13.716;2023-06-22T05:08:24;33.30;40.80
47773;DHT22;33534;51.028;13.716;2023-06-22T05:55:01;33.90;39.40
47773;DHT22;33534;51.028;13.716;2023-06-22T06:16:22;37.80;33.60
47773;DHT22;33534;51.028;13.716;2023-06-22T06:18:48;38.10;33.90
47773;DHT22;33534;51.028;13.716;2023-06-22T07:27:19;36.50;35.70
47773;DHT22;33534;51.028;13.716;2023-06-22T07:29:45;36.60;35.50
47773;DHT22;33534;51.028;13.716;2023-06-22T07:35:36;35.40;36.60
47773;DHT22;33534;51.028;13.716;2023-06-22T07:38:02;34.40;38.40
47773;DHT22;33534;51.028;13.716;2023-06-22T07:40:28;34.20;39.90
47773;DHT22;33534;51.028;13.716;2023-06-22T07:42:53;34.90;38.00
47773;DHT22;33534;51.028;13.716;2023-06-22T07:45:19;35.00;38.10
47773;DHT22;33534;51.028;13.716;2023-06-22T07:47:45;34.20;39.50
47773;DHT22;33534;51.028;13.716;2023-06-22T07:50:10;35.20;38.60
47773;DHT22;33534;51.028;13.716;2023-06-22T07:52:36;36.40;35.90
47773;DHT22;33534;51.028;13.716;2023-06-22T08:00:00;38.90;33.70
47773;DHT22;33534;51.028;13.716;2023-06-22T08:02:26;40.10;31.80
47773;DHT22;33534;51.028;13.716;2023-06-22T08:04:52;40.10;30.50
47773;DHT22;33534;51.028;13.716;2023-06-22T08:07:18;38.50;32.70
47773;DHT22;33534;51.028;13.716;2023-06-22T08:09:48;38.50;32.50
47773;DHT22;33534;51.028;13.716;2023-06-22T08:12:15;38.20;32.60
47773;DHT22;33534;51.028;13.716;2023-06-22T08:14:42;37.90;33.70
47773;DHT22;33534;51.028;13.716;2023-06-22T09:18:14;38.40;31.60
47773;DHT22;33534;51.028;13.716;2023-06-22T09:20:40;36.40;34.30
47773;DHT22;33534;51.028;13.716;2023-06-22T09:25:31;37.00;33.80
47773;DHT22;33534;51.028;13.716;2023-06-22T09:27:57;36.60;34.20
47773;DHT22;33534;51.028;13.716;2023-06-22T09:30:23;35.80;35.70
47773;DHT22;33534;51.028;13.716;2023-06-22T09:32:49;36.00;36.40
47773;DHT22;33534;51.028;13.716;2023-06-22T09:35:14;35.40;37.30
47773;DHT22;33534;51.028;13.716;2023-06-22T09:37:40;35.10;37.80
47773;DHT22;33534;51.028;13.716;2023-06-22T09:54:47;32.90;40.10
47773;DHT22;33534;51.028;13.716;2023-06-22T09:57:13;33.10;40.30
47773;DHT22;33534;51.028;13.716;2023-06-22T09:59:39;33.30;39.90
47773;DHT22;33534;51.028;13.716;2023-06-22T10:02:06;33.90;39.00
47773;DHT22;33534;51.028;13.716;2023-06-22T10:04:33;34.80;39.30
47773;DHT22;33534;51.028;13.716;2023-06-22T10:06:58;36.00;36.00
47773;DHT22;33534;51.028;13.716;2023-06-22T10:09:24;36.50;35.00
47773;DHT22;33534;51.028;13.716;2023-06-22T10:11:50;35.70;35.20
47773;DHT22;33534;51.028;13.716;2023-06-22T10:14:15;34.70;36.60
47773;DHT22;33534;51.028;13.716;2023-06-22T10:16:42;34.90;37.70
47773;DHT22;33534;51.028;13.716;2023-06-22T10:19:07;34.30;37.50
47773;DHT22;33534;51.028;13.716;2023-06-22T10:21:33;33.20;39.60
47773;DHT22;33534;51.028;13.716;2023-06-22T10:24:00;33.40;39.30
47773;DHT22;33534;51.028;13.716;2023-06-22T10:26:32;33.40;40.20
47773;DHT22;33534;51.028;13.716;2023-06-22T10:28:58;33.30;40.10
47773;DHT22;33534;51.028;13.716;2023-06-22T10:31:24;32.90;40.80
47773;DHT22;33534;51.028;13.716;2023-06-22T10:33:50;33.00;41.40
47773;DHT22;33534;51.028;13.716;2023-06-22T10:36:16;32.90;42.10
47773;DHT22;33534;51.028;13.716;2023-06-22T10:38:42;33.20;40.00
47773;DHT22;33534;51.028;13.716;2023-06-22T10:41:07;33.20;40.10
47773;DHT22;33534;51.028;13.716;2023-06-22T10:43:33;33.20;41.30
47773;DHT22;33534;51.028;13.716;2023-06-22T10:45:59;33.20;40.20
47773;DHT22;33534;51.028;13.716;2023-06-22T10:48:24;33.70;39.10
47773;DHT22;33534;51.028;13.716;2023-06-22T10:50:50;33.60;40.40
47773;DHT22;33534;51.028;13.716;2023-06-22T10:53:15;33.70;39.70
47773;DHT22;33534;51.028;13.716;2023-06-22T10:55:41;33.30;39.00
47773;DHT22;33534;51.028;13.716;2023-06-22T10:58:07;33.50;39.60
47773;DHT22;33534;51.028;13.716;2023-06-22T11:00:32;33.10;39.50
47773;DHT22;33534;51.028;13.716;2023-06-22T11:02:58;32.40;40.90
47773;DHT22;33534;51.028;13.716;2023-06-22T12:01:30;32.40;43.00
47773;DHT22;33534;51.028;13.716;2023-06-22T12:03:58;32.60;42.40
47773;DHT22;33534;51.028;13.716;2023-06-22T12:06:24;33.10;42.10
47773;DHT22;33534;51.028;13.716;2023-06-22T12:08:49;33.50;41.60
47773;DHT22;33534;51.028;13.716;2023-06-22T12:11:15;33.30;40.40
47773;DHT22;33534;51.028;13.716;2023-06-22T12:13:41;32.80;40.30
47773;DHT22;33534;51.028;13.716;2023-06-22T12:16:06;32.50;41.10
47773;DHT22;33534;51.028;13.716;2023-06-22T12:18:32;32.30;41.50
47773;DHT22;33534;51.028;13.716;2023-06-22T12:20:58;32.40;42.30
47773;DHT22;33534;51.028;13.716;2023-06-22T12:23:24;32.80;41.50
47773;DHT22;33534;51.028;13.716;2023-06-22T12:25:50;32.60;42.30
47773;DHT22;33534;51.028;13.716;2023-06-22T12:28:15;32.40;41.40
47773;DHT22;33534;51.028;13.716;2023-06-22T12:30:41;32.50;42.50
47773;DHT22;33534;51.028;13.716;2023-06-22T12:33:06;32.70;41.40
47773;DHT22;33534;51.028;13.716;2023-06-22T12:35:32;32.40;42.20
47773;DHT22;33534;51.028;13.716;2023-06-22T12:37:58;32.70;41.50
47773;DHT22;33534;51.028;13.716;2023-06-22T12:40:24;32.90;42.10
47773;DHT22;33534;51.028;13.716;2023-06-22T12:42:50;33.20;40.30
47773;DHT22;33534;51.028;13.716;2023-06-22T12:45:15;33.00;40.20
47773;DHT22;33534;51.028;13.716;2023-06-22T12:47:41;32.90;41.00
47773;DHT22;33534;51.028;13.716;2023-06-22T12:50:07;32.90;41.00
47773;DHT22;33534;51.028;13.716;2023-06-22T12:52:33;32.60;41.00
47773;DHT22;33534;51.028;13.716;2023-06-22T12:54:58;32.40;41.30
47773;DHT22;33534;51.028;13.716;2023-06-22T12:57:24;32.50;41.70
47773;DHT22;33534;51.028;13.716;2023-06-22T12:59:50;32.40;40.90
47773;DHT22;33534;51.028;13.716;2023-06-22T13:02:16;32.10;42.50
47773;DHT22;33534;51.028;13.716;2023-06-22T13:04:42;32.10;42.40
47773;DHT22;33534;51.028;13.716;2023-06-22T13:07:08;32.30;42.40
47773;DHT22;33534;51.028;13.716;2023-06-22T13:09:36;32.70;42.60
47773;DHT22;33534;51.028;13.716;2023-06-22T13:12:02;32.90;41.70
47773;DHT22;33534;51.028;13.716;2023-06-22T13:14:27;32.80;41.20
47773;DHT22;33534;51.028;13.716;2023-06-22T13:16:53;32.40;41.10
47773;DHT22;33534;51.028;13.716;2023-06-22T13:19:19;32.00;41.90
47773;DHT22;33534;51.028;13.716;2023-06-22T13:21:44;31.60;43.50
47773;DHT22;33534;51.028;13.716;2023-06-22T13:24:10;32.00;43.60
47773;DHT22;33534;51.028;13.716;2023-06-22T13:26:35;32.20;42.60
47773;DHT22;33534;51.028;13.716;2023-06-22T13:29:01;32.10;43.10
47773;DHT22;33534;51.028;13.716;2023-06-22T13:31:26;32.20;42.70
47773;DHT22;33534;51.028;13.716;2023-06-22T13:33:52;32.50;42.10
47773;DHT22;33534;51.028;13.716;2023-06-22T13:36:18;32.70;41.40
47773;DHT22;33534;51.028;13.716;2023-06-22T13:38:44;32.80;41.90
47773;DHT22;33534;51.028;13.716;2023-06-22T13:41:10;33.10;41.50
47773;DHT22;33534;51.028;13.716;2023-06-22T13:43:36;33.40;41.90
47773;DHT22;33534;51.028;13.716;2023-06-22T13:46:01;33.00;40.40
47773;DHT22;33534;51.028;13.716;2023-06-22T13:48:27;32.90;41.80
47773;DHT22;33534;51.028;13.716;2023-06-22T13:50:54;32.90;41.80
47773;DHT22;33534;51.028;13.716;2023-06-22T13:53:20;33.10;41.20
47773;DHT22;33534;51.028;13.716;2023-06-22T13:55:45;32.80;41.10
47773;DHT22;33534;51.028;13.716;2023-06-22T13:58:13;32.50;41.50
47773;DHT22;33534;51.028;13.716;2023-06-22T14:00:38;32.40;41.90
47773;DHT22;33534;51.028;13.716;2023-06-22T14:03:04;32.20;41.60
47773;DHT22;33534;51.028;13.716;2023-06-22T14:05:30;32.10;42.40
47773;DHT22;33534;51.028;13.716;2023-06-22T14:07:55;32.30;42.90
47773;DHT22;33534;51.028;13.716;2023-06-22T14:10:21;32.40;42.60
47773;DHT22;33534;51.028;13.716;2023-06-22T14:12:47;32.40;40.60
47773;DHT22;33534;51.028;13.716;2023-06-22T14:15:12;32.60;42.00
47773;DHT22;33534;51.028;13.716;2023-06-22T14:17:38;32.60;42.00
47773;DHT22;33534;51.028;13.716;2023-06-22T14:20:04;32.60;42.80
47773;DHT22;33534;51.028;13.716;2023-06-22T14:22:31;32.50;40.40
47773;DHT22;33534;51.028;13.716;2023-06-22T14:24:56;32.90;41.50
47773;DHT22;33534;51.028;13.716;2023-06-22T14:27:24;32.90;40.90
47773;DHT22;33534;51.028;13.716;2023-06-22T14:29:49;33.00;41.60
47773;DHT22;33534;51.028;13.716;2023-06-22T14:32:15;32.90;41.30
47773;DHT22;33534;51.028;13.716;2023-06-22T14:34:40;32.90;41.60
47773;DHT22;33534;51.028;13.716;2023-06-22T14:37:06;32.90;41.10
47773;DHT22;33534;51.028;13.716;2023-06-22T14:39:33;32.70;41.60
47773;DHT22;33534;51.028;13.716;2023-06-22T14:41:59;32.70;41.20
47773;DHT22;33534;51.028;13.716;2023-06-22T14:44:26;32.80;41.90
47773;DHT22;33534;51.028;13.716;2023-06-22T14:46:54;32.80;41.40
47773;DHT22;33534;51.028;13.716;2023-06-22T14:49:20;32.80;41.20
47773;DHT22;33534;51.028;13.716;2023-06-22T14:51:45;32.60;41.30
47773;DHT22;33534;51.028;13.716;2023-06-22T14:54:11;32.80;42.00
47773;DHT22;33534;51.028;13.716;2023-06-22T14:56:36;32.80;40.10
47773;DHT22;33534;51.028;13.716;2023-06-22T14:59:02;32.80;42.20
47773;DHT22;33534;51.028;13.716;2023-06-22T15:01:28;32.60;40.00
47773;DHT22;33534;51.028;13.716;2023-06-22T15:03:53;32.40;40.70
47773;DHT22;33534;51.028;13.716;2023-06-22T15:06:19;32.60;40.60
47773;DHT22;33534;51.028;13.716;2023-06-22T15:08:44;32.40;41.40
47773;DHT22;33534;51.028;13.716;2023-06-22T15:11:10;32.40;41.60
47773;DHT22;33534;51.028;13.716;2023-06-22T15:13:39;32.20;43.20
47773;DHT22;33534;51.028;13.716;2023-06-22T15:16:04;32.30;43.50
47773;DHT22;33534;51.028;13.716;2023-06-22T15:18:30;32.40;43.60
47773;DHT22;33534;51.028;13.716;2023-06-22T15:20:56;32.30;42.00
47773;DHT22;33534;51.028;13.716;2023-06-22T15:23:21;32.20;42.20
47773;DHT22;33534;51.028;13.716;2023-06-22T15:25:47;32.10;42.80
47773;DHT22;33534;51.028;13.716;2023-06-22T15:28:14;32.10;42.20
47773;DHT22;33534;51.028;13.716;2023-06-22T15:30:39;32.30;42.70
47773;DHT22;33534;51.028;13.716;2023-06-22T15:33:05;32.40;43.50
47773;DHT22;33534;51.028;13.716;2023-06-22T15:35:31;32.50;44.20
47773;DHT22;33534;51.028;13.716;2023-06-22T15:37:56;32.40;43.50
47773;DHT22;33534;51.028;13.716;2023-06-22T15:40:22;32.30;44.10
47773;DHT22;33534;51.028;13.716;2023-06-22T15:42:51;32.30;43.60
47773;DHT22;33534;51.028;13.716;2023-06-22T15:45:16;32.20;42.50
47773;DHT22;33534;51.028;13.716;2023-06-22T15:47:42;32.10;43.50
47773;DHT22;33534;51.028;13.716;2023-06-22T15:50:08;32.20;43.20
47773;DHT22;33534;51.028;13.716;2023-06-22T15:52:34;32.20;42.70
47773;DHT22;33534;51.028;13.716;2023-06-22T15:54:59;32.30;42.00
47773;DHT22;33534;51.028;13.716;2023-06-22T15:57:26;32.20;42.20
47773;DHT22;33534;51.028;13.716;2023-06-22T15:59:52;32.10;42.10
47773;DHT22;33534;51.028;13.716;2023-06-22T16:02:18;32.00;42.40
47773;DHT22;33534;51.028;13.716;2023-06-22T16:04:44;31.90;44.00
47773;DHT22;33534;51.028;13.716;2023-06-22T16:07:09;32.00;44.90
47773;DHT22;33534;51.028;13.716;2023-06-22T16:09:37;31.90;45.90
47773;DHT22;33534;51.028;13.716;2023-06-22T16:12:03;31.90;45.20
47773;DHT22;33534;51.028;13.716;2023-06-22T16:14:30;31.90;44.70
47773;DHT22;33534;51.028;13.716;2023-06-22T16:16:56;31.90;45.40
47773;DHT22;33534;51.028;13.716;2023-06-22T16:19:22;31.80;46.20
47773;DHT22;33534;51.028;13.716;2023-06-22T16:21:47;31.70;45.70
47773;DHT22;33534;51.028;13.716;2023-06-22T16:24:13;31.80;45.80
47773;DHT22;33534;51.028;13.716;2023-06-22T16:26:43;31.70;45.80
47773;DHT22;33534;51.028;13.716;2023-06-22T16:29:09;31.60;46.60
47773;DHT22;33534;51.028;13.716;2023-06-22T16:31:35;31.50;47.40
47773;DHT22;33534;51.028;13.716;2023-06-22T16:34:02;31.30;48.10
47773;DHT22;33534;51.028;13.716;2023-06-22T16:36:31;31.40;48.20
47773;DHT22;33534;51.028;13.716;2023-06-22T16:38:56;31.40;47.80
47773;DHT22;33534;51.028;13.716;2023-06-22T16:41:22;31.30;47.20
47773;DHT22;33534;51.028;13.716;2023-06-22T16:43:48;31.40;47.50
47773;DHT22;33534;51.028;13.716;2023-06-22T16:46:14;31.50;48.10
47773;DHT22;33534;51.028;13.716;2023-06-22T16:48:39;31.50;48.00
47773;DHT22;33534;51.028;13.716;2023-06-22T16:51:06;31.40;48.10
47773;DHT22;33534;51.028;13.716;2023-06-22T16:53:32;31.40;48.80
47773;DHT22;33534;51.028;13.716;2023-06-22T16:55:58;31.40;48.90
47773;DHT22;33534;51.028;13.716;2023-06-22T16:58:24;31.40;49.00
47773;DHT22;33534;51.028;13.716;2023-06-22T17:00:56;31.00;49.80
47773;DHT22;33534;51.028;13.716;2023-06-22T17:03:28;30.90;50.00
47773;DHT22;33534;51.028;13.716;2023-06-22T17:05:56;30.80;49.80
47773;DHT22;33534;51.028;13.716;2023-06-22T17:08:23;30.70;50.40
47773;DHT22;33534;51.028;13.716;2023-06-22T17:10:50;30.70;50.50
47773;DHT22;33534;51.028;13.716;2023-06-22T17:13:17;30.60;50.90
47773;DHT22;33534;51.028;13.716;2023-06-22T17:15:43;30.60;51.10
47773;DHT22;33534;51.028;13.716;2023-06-22T17:18:09;30.50;51.50
47773;DHT22;33534;51.028;13.716;2023-06-22T17:20:35;30.50;51.60
47773;DHT22;33534;51.028;13.716;2023-06-22T17:23:01;30.60;51.50
47773;DHT22;33534;51.028;13.716;2023-06-22T17:25:28;30.60;51.90
47773;DHT22;33534;51.028;13.716;2023-06-22T17:28:01;30.30;51.90
47773;DHT22;33534;51.028;13.716;2023-06-22T17:30:28;30.20;52.60
47773;DHT22;33534;51.028;13.716;2023-06-22T17:32:54;30.30;52.70
47773;DHT22;33534;51.028;13.716;2023-06-22T17:35:19;30.30;52.80
47773;DHT22;33534;51.028;13.716;2023-06-22T17:37:56;30.20;52.80
47773;DHT22;33534;51.028;13.716;2023-06-22T17:40:24;30.00;53.20
47773;DHT22;33534;51.028;13.716;2023-06-22T17:42:52;30.00;53.50
47773;DHT22;33534;51.028;13.716;2023-06-22T17:50:24;29.50;54.40
47773;DHT22;33534;51.028;13.716;2023-06-22T17:52:54;29.50;54.30
47773;DHT22;33534;51.028;13.716;2023-06-22T17:55:25;29.40;54.90
47773;DHT22;33534;51.028;13.716;2023-06-22T17:57:56;29.30;54.90
47773;DHT22;33534;51.028;13.716;2023-06-22T18:00:22;29.20;55.30
47773;DHT22;33534;51.028;13.716;2023-06-22T18:02:49;29.10;55.50
47773;DHT22;33534;51.028;13.716;2023-06-22T18:05:15;29.00;55.90
47773;DHT22;33534;51.028;13.716;2023-06-22T18:07:41;28.90;56.00
47773;DHT22;33534;51.028;13.716;2023-06-22T18:10:08;28.90;56.10
47773;DHT22;33534;51.028;13.716;2023-06-22T18:12:37;28.90;56.40
47773;DHT22;33534;51.028;13.716;2023-06-22T18:15:06;28.80;56.60
47773;DHT22;33534;51.028;13.716;2023-06-22T18:17:32;28.70;56.90
47773;DHT22;33534;51.028;13.716;2023-06-22T18:19:58;28.60;56.90
47773;DHT22;33534;51.028;13.716;2023-06-22T18:22:28;28.50;57.10
47773;DHT22;33534;51.028;13.716;2023-06-22T18:24:59;28.50;57.20
47773;DHT22;33534;51.028;13.716;2023-06-22T18:27:26;28.50;57.30
